Terminal Aerodrome Forecast
Issued by NWS

Home | Current Version | Previous Version | Text Only | Print | Product List | Glossary On
Versions: 1 2 3 4 5 6 7 8 9 10 11 12 13 14 15 16 17 18 19 20 21 22 23 24 25 26 27 28 29 30 31 32 33
000
FTUS41 KOKX 252328
TAFTEB
TAF
KTEB 252328Z 2600/2706 VRB02KT 6SM BR OVC007
     FM260200 VRB02KT 3SM BR OVC008
      TEMPO 2602/2606 2SM BR SCT008 OVC200
     FM260600 VRB03KT 4SM BR OVC200
     FM260800 VRB03KT P6SM OVC200
     FM261400 32007KT P6SM BKN120 OVC200
     FM261800 28009G16KT P6SM BKN120
     FM262200 28009KT P6SM SKC
     FM270300 31007KT P6SM SKC=

USA.gov is the U.S. government's official web portal to all federal, state and local government web resources and services.